sensor_id;sensor_type;location;lat;lon;timestamp;pressure;altitude;pressure_sealevel;temperature;humidity
30967;BME280;17649;51.836;8.330;2023-09-08T00:00:54;101364.53;;;17.28;100.00
30967;BME280;17649;51.836;8.330;2023-09-08T00:03:55;101349.31;;;17.33;100.00
30967;BME280;17649;51.836;8.330;2023-09-08T00:06:55;101359.78;;;17.33;100.00
30967;BME280;17649;51.836;8.330;2023-09-08T00:09:56;101356.59;;;17.17;100.00
30967;BME280;17649;51.836;8.330;2023-09-08T00:12:56;101361.94;;;17.15;100.00
30967;BME280;17649;51.836;8.330;2023-09-08T00:15:56;101365.78;;;17.22;100.00
30967;BME280;17649;51.836;8.330;2023-09-08T00:18:57;101355.31;;;17.22;100.00
30967;BME280;17649;51.836;8.330;2023-09-08T00:22:00;101345.81;;;17.21;100.00
30967;BME280;17649;51.836;8.330;2023-09-08T00:25:01;101338.91;;;17.20;100.00
30967;BME280;17649;51.836;8.330;2023-09-08T00:28:01;101345.19;;;17.18;100.00
30967;BME280;17649;51.836;8.330;2023-09-08T00:31:01;101345.84;;;17.09;100.00
30967;BME280;17649;51.836;8.330;2023-09-08T00:34:02;101343.09;;;17.10;100.00
30967;BME280;17649;51.836;8.330;2023-09-08T00:37:02;101340.50;;;17.10;100.00
30967;BME280;17649;51.836;8.330;2023-09-08T00:40:07;101347.72;;;17.07;100.00
30967;BME280;17649;51.836;8.330;2023-09-08T00:43:10;101341.78;;;17.05;100.00
30967;BME280;17649;51.836;8.330;2023-09-08T00:46:11;101341.16;;;17.01;100.00
30967;BME280;17649;51.836;8.330;2023-09-08T00:49:12;101343.78;;;17.01;100.00
30967;BME280;17649;51.836;8.330;2023-09-08T00:52:12;101339.06;;;16.93;100.00
30967;BME280;17649;51.836;8.330;2023-09-08T00:55:13;101345.91;;;16.83;100.00
30967;BME280;17649;51.836;8.330;2023-09-08T00:58:14;101344.25;;;16.82;100.00
30967;BME280;17649;51.836;8.330;2023-09-08T01:01:15;101345.25;;;16.80;100.00
30967;BME280;17649;51.836;8.330;2023-09-08T01:04:17;101348.94;;;16.77;100.00
30967;BME280;17649;51.836;8.330;2023-09-08T01:07:19;101346.50;;;16.61;100.00
30967;BME280;17649;51.836;8.330;2023-09-08T01:10:19;101339.72;;;16.59;100.00
30967;BME280;17649;51.836;8.330;2023-09-08T01:13:20;101344.34;;;16.68;100.00
30967;BME280;17649;51.836;8.330;2023-09-08T01:16:20;101339.84;;;16.70;100.00
30967;BME280;17649;51.836;8.330;2023-09-08T01:19:21;101343.19;;;16.72;100.00
30967;BME280;17649;51.836;8.330;2023-09-08T01:25:31;101349.47;;;16.69;100.00
30967;BME280;17649;51.836;8.330;2023-09-08T01:28:33;101345.44;;;16.64;100.00
30967;BME280;17649;51.836;8.330;2023-09-08T01:31:34;101353.41;;;16.62;100.00
30967;BME280;17649;51.836;8.330;2023-09-08T01:34:35;101353.84;;;16.44;100.00
30967;BME280;17649;51.836;8.330;2023-09-08T01:37:47;101354.34;;;16.49;100.00
30967;BME280;17649;51.836;8.330;2023-09-08T01:40:48;101357.78;;;16.49;100.00
30967;BME280;17649;51.836;8.330;2023-09-08T01:43:48;101354.44;;;16.34;100.00
30967;BME280;17649;51.836;8.330;2023-09-08T01:46:49;101355.28;;;16.35;100.00
30967;BME280;17649;51.836;8.330;2023-09-08T01:49:51;101356.66;;;16.40;100.00
30967;BME280;17649;51.836;8.330;2023-09-08T01:52:51;101356.03;;;16.37;100.00
30967;BME280;17649;51.836;8.330;2023-09-08T01:55:52;101349.03;;;16.37;100.00
30967;BME280;17649;51.836;8.330;2023-09-08T01:58:52;101340.66;;;16.32;100.00
30967;BME280;17649;51.836;8.330;2023-09-08T02:01:52;101341.28;;;16.36;100.00
30967;BME280;17649;51.836;8.330;2023-09-08T02:04:53;101344.19;;;16.19;100.00
30967;BME280;17649;51.836;8.330;2023-09-08T02:07:53;101339.41;;;16.13;100.00
30967;BME280;17649;51.836;8.330;2023-09-08T02:10:55;101340.66;;;16.07;100.00
30967;BME280;17649;51.836;8.330;2023-09-08T02:13:56;101338.56;;;16.12;100.00
30967;BME280;17649;51.836;8.330;2023-09-08T02:16:56;101340.34;;;16.12;100.00
30967;BME280;17649;51.836;8.330;2023-09-08T02:19:57;101339.38;;;16.00;100.00
30967;BME280;17649;51.836;8.330;2023-09-08T02:23:03;101340.22;;;16.00;100.00
30967;BME280;17649;51.836;8.330;2023-09-08T02:26:03;101345.44;;;16.00;100.00
30967;BME280;17649;51.836;8.330;2023-09-08T02:29:04;101334.16;;;16.00;100.00
30967;BME280;17649;51.836;8.330;2023-09-08T02:32:04;101341.28;;;16.10;100.00
30967;BME280;17649;51.836;8.330;2023-09-08T02:35:05;101338.78;;;16.09;100.00
30967;BME280;17649;51.836;8.330;2023-09-08T02:38:06;101336.88;;;16.11;100.00
30967;BME280;17649;51.836;8.330;2023-09-08T02:41:06;101334.97;;;16.00;100.00
30967;BME280;17649;51.836;8.330;2023-09-08T02:44:06;101331.66;;;15.98;100.00
30967;BME280;17649;51.836;8.330;2023-09-08T02:47:07;101331.19;;;15.92;100.00
30967;BME280;17649;51.836;8.330;2023-09-08T02:50:07;101328.69;;;15.77;100.00
30967;BME280;17649;51.836;8.330;2023-09-08T02:53:08;101331.31;;;15.77;100.00
30967;BME280;17649;51.836;8.330;2023-09-08T02:56:08;101328.59;;;15.79;100.00
30967;BME280;17649;51.836;8.330;2023-09-08T02:59:09;101337.03;;;15.83;100.00
30967;BME280;17649;51.836;8.330;2023-09-08T03:02:10;101334.09;;;15.74;100.00
30967;BME280;17649;51.836;8.330;2023-09-08T03:05:10;101327.16;;;15.61;100.00
30967;BME280;17649;51.836;8.330;2023-09-08T03:08:10;101336.09;;;15.57;100.00
30967;BME280;17649;51.836;8.330;2023-09-08T03:11:12;101332.75;;;15.55;100.00
30967;BME280;17649;51.836;8.330;2023-09-08T03:14:12;101337.41;;;15.64;100.00
30967;BME280;17649;51.836;8.330;2023-09-08T03:17:12;101335.53;;;15.66;100.00
30967;BME280;17649;51.836;8.330;2023-09-08T03:20:13;101332.88;;;15.80;100.00
30967;BME280;17649;51.836;8.330;2023-09-08T03:23:14;101330.78;;;15.85;100.00
30967;BME280;17649;51.836;8.330;2023-09-08T03:26:14;101326.25;;;15.74;100.00
30967;BME280;17649;51.836;8.330;2023-09-08T03:29:15;101325.00;;;15.67;100.00
30967;BME280;17649;51.836;8.330;2023-09-08T03:32:15;101318.63;;;15.71;100.00
30967;BME280;17649;51.836;8.330;2023-09-08T03:35:15;101323.72;;;15.60;100.00
30967;BME280;17649;51.836;8.330;2023-09-08T03:38:16;101318.56;;;15.59;100.00
30967;BME280;17649;51.836;8.330;2023-09-08T03:41:16;101318.13;;;15.52;100.00
30967;BME280;17649;51.836;8.330;2023-09-08T03:44:16;101316.72;;;15.61;100.00
30967;BME280;17649;51.836;8.330;2023-09-08T03:47:17;101317.41;;;15.50;100.00
30967;BME280;17649;51.836;8.330;2023-09-08T03:50:17;101326.34;;;15.46;100.00
30967;BME280;17649;51.836;8.330;2023-09-08T03:53:17;101320.94;;;15.49;100.00
30967;BME280;17649;51.836;8.330;2023-09-08T03:56:17;101310.78;;;15.44;100.00
30967;BME280;17649;51.836;8.330;2023-09-08T03:59:18;101317.44;;;15.36;100.00
30967;BME280;17649;51.836;8.330;2023-09-08T04:02:18;101320.16;;;15.34;100.00
30967;BME280;17649;51.836;8.330;2023-09-08T04:05:19;101317.97;;;15.41;100.00
30967;BME280;17649;51.836;8.330;2023-09-08T04:08:19;101315.38;;;15.41;100.00
30967;BME280;17649;51.836;8.330;2023-09-08T04:11:19;101324.19;;;15.52;100.00
30967;BME280;17649;51.836;8.330;2023-09-08T04:14:19;101319.81;;;15.53;100.00
30967;BME280;17649;51.836;8.330;2023-09-08T04:17:20;101324.41;;;15.49;100.00
30967;BME280;17649;51.836;8.330;2023-09-08T04:20:20;101321.06;;;15.47;100.00
30967;BME280;17649;51.836;8.330;2023-09-08T04:23:21;101317.56;;;15.47;100.00
30967;BME280;17649;51.836;8.330;2023-09-08T04:26:21;101314.97;;;15.47;100.00
30967;BME280;17649;51.836;8.330;2023-09-08T04:29:22;101316.38;;;15.52;100.00
30967;BME280;17649;51.836;8.330;2023-09-08T04:32:22;101313.50;;;15.43;100.00
30967;BME280;17649;51.836;8.330;2023-09-08T04:35:22;101317.25;;;15.39;100.00
30967;BME280;17649;51.836;8.330;2023-09-08T04:38:23;101315.94;;;15.32;100.00
30967;BME280;17649;51.836;8.330;2023-09-08T04:41:23;101317.66;;;15.33;100.00
30967;BME280;17649;51.836;8.330;2023-09-08T04:44:23;101321.94;;;15.34;100.00
30967;BME280;17649;51.836;8.330;2023-09-08T04:47:24;101327.72;;;15.25;100.00
30967;BME280;17649;51.836;8.330;2023-09-08T04:50:24;101315.34;;;15.14;100.00
30967;BME280;17649;51.836;8.330;2023-09-08T04:53:24;101319.41;;;15.05;100.00
30967;BME280;17649;51.836;8.330;2023-09-08T04:56:25;101323.91;;;15.16;100.00
30967;BME280;17649;51.836;8.330;2023-09-08T04:59:25;101323.47;;;15.09;100.00
30967;BME280;17649;51.836;8.330;2023-09-08T05:02:25;101322.69;;;15.21;100.00
30967;BME280;17649;51.836;8.330;2023-09-08T05:05:26;101325.50;;;15.18;100.00
30967;BME280;17649;51.836;8.330;2023-09-08T05:08:26;101329.03;;;15.17;100.00
30967;BME280;17649;51.836;8.330;2023-09-08T05:11:27;101334.72;;;15.24;100.00
30967;BME280;17649;51.836;8.330;2023-09-08T05:14:27;101328.97;;;15.19;100.00
30967;BME280;17649;51.836;8.330;2023-09-08T05:17:27;101333.38;;;15.31;100.00
30967;BME280;17649;51.836;8.330;2023-09-08T05:20:28;101336.53;;;15.36;100.00
30967;BME280;17649;51.836;8.330;2023-09-08T05:23:28;101335.84;;;15.47;100.00
30967;BME280;17649;51.836;8.330;2023-09-08T05:26:29;101339.63;;;15.56;100.00
30967;BME280;17649;51.836;8.330;2023-09-08T05:29:29;101335.91;;;15.60;100.00
30967;BME280;17649;51.836;8.330;2023-09-08T05:32:29;101331.16;;;15.66;100.00
30967;BME280;17649;51.836;8.330;2023-09-08T05:35:29;101336.69;;;15.74;100.00
30967;BME280;17649;51.836;8.330;2023-09-08T05:38:30;101333.38;;;15.85;100.00
30967;BME280;17649;51.836;8.330;2023-09-08T05:41:30;101328.28;;;15.84;100.00
30967;BME280;17649;51.836;8.330;2023-09-08T05:44:32;101333.53;;;15.96;100.00
30967;BME280;17649;51.836;8.330;2023-09-08T05:47:32;101329.69;;;16.15;100.00
30967;BME280;17649;51.836;8.330;2023-09-08T05:50:32;101333.03;;;16.29;100.00
30967;BME280;17649;51.836;8.330;2023-09-08T05:53:33;101330.66;;;16.39;100.00
30967;BME280;17649;51.836;8.330;2023-09-08T05:56:37;101328.75;;;16.54;100.00
30967;BME280;17649;51.836;8.330;2023-09-08T05:59:37;101327.06;;;16.65;100.00
30967;BME280;17649;51.836;8.330;2023-09-08T06:02:38;101324.25;;;16.81;100.00
30967;BME280;17649;51.836;8.330;2023-09-08T06:05:38;101330.84;;;16.87;100.00
30967;BME280;17649;51.836;8.330;2023-09-08T06:08:38;101326.84;;;16.94;100.00
30967;BME280;17649;51.836;8.330;2023-09-08T06:11:39;101317.72;;;17.12;100.00
30967;BME280;17649;51.836;8.330;2023-09-08T06:14:39;101322.22;;;17.34;100.00
30967;BME280;17649;51.836;8.330;2023-09-08T06:17:39;101324.00;;;17.57;100.00
30967;BME280;17649;51.836;8.330;2023-09-08T06:20:47;101321.16;;;18.42;100.00
30967;BME280;17649;51.836;8.330;2023-09-08T06:23:47;101319.28;;;19.43;100.00
30967;BME280;17649;51.836;8.330;2023-09-08T06:26:47;101313.97;;;19.65;100.00
30967;BME280;17649;51.836;8.330;2023-09-08T06:29:49;101304.09;;;19.47;100.00
30967;BME280;17649;51.836;8.330;2023-09-08T06:32:50;101307.50;;;19.38;100.00
30967;BME280;17649;51.836;8.330;2023-09-08T06:35:50;101302.72;;;19.31;100.00
30967;BME280;17649;51.836;8.330;2023-09-08T06:38:51;101306.28;;;19.42;100.00
30967;BME280;17649;51.836;8.330;2023-09-08T06:41:51;101300.50;;;19.48;100.00
30967;BME280;17649;51.836;8.330;2023-09-08T06:44:51;101300.63;;;19.57;100.00
30967;BME280;17649;51.836;8.330;2023-09-08T06:47:52;101297.44;;;19.75;100.00
30967;BME280;17649;51.836;8.330;2023-09-08T06:50:55;101303.22;;;19.89;100.00
30967;BME280;17649;51.836;8.330;2023-09-08T06:53:57;101302.91;;;20.04;100.00
30967;BME280;17649;51.836;8.330;2023-09-08T06:56:57;101301.59;;;20.19;100.00
30967;BME280;17649;51.836;8.330;2023-09-08T06:59:58;101298.91;;;20.30;100.00
30967;BME280;17649;51.836;8.330;2023-09-08T07:02:58;101302.75;;;20.47;100.00
30967;BME280;17649;51.836;8.330;2023-09-08T07:05:58;101293.38;;;20.54;100.00
30967;BME280;17649;51.836;8.330;2023-09-08T07:08:59;101299.81;;;20.71;100.00
30967;BME280;17649;51.836;8.330;2023-09-08T07:11:59;101284.88;;;20.81;100.00
30967;BME280;17649;51.836;8.330;2023-09-08T07:14:59;101290.84;;;20.83;100.00
30967;BME280;17649;51.836;8.330;2023-09-08T07:18:03;101283.00;;;21.02;100.00
30967;BME280;17649;51.836;8.330;2023-09-08T07:21:04;101281.63;;;21.18;100.00
30967;BME280;17649;51.836;8.330;2023-09-08T07:24:05;101283.06;;;21.31;100.00
30967;BME280;17649;51.836;8.330;2023-09-08T07:27:05;101276.28;;;21.48;100.00
30967;BME280;17649;51.836;8.330;2023-09-08T07:30:06;101279.31;;;21.63;100.00
30967;BME280;17649;51.836;8.330;2023-09-08T07:33:07;101279.84;;;21.76;100.00
30967;BME280;17649;51.836;8.330;2023-09-08T07:36:08;101281.38;;;21.88;100.00
30967;BME280;17649;51.836;8.330;2023-09-08T07:39:09;101276.22;;;22.06;100.00
30967;BME280;17649;51.836;8.330;2023-09-08T07:42:09;101290.19;;;22.16;100.00
30967;BME280;17649;51.836;8.330;2023-09-08T07:45:09;101275.84;;;22.28;100.00
30967;BME280;17649;51.836;8.330;2023-09-08T07:48:10;101278.63;;;22.37;100.00
30967;BME280;17649;51.836;8.330;2023-09-08T07:51:10;101268.28;;;22.53;100.00
30967;BME280;17649;51.836;8.330;2023-09-08T07:54:11;101269.44;;;22.68;100.00
30967;BME280;17649;51.836;8.330;2023-09-08T07:57:11;101269.25;;;22.79;100.00
30967;BME280;17649;51.836;8.330;2023-09-08T08:00:12;101263.78;;;22.90;100.00
30967;BME280;17649;51.836;8.330;2023-09-08T08:03:13;101263.88;;;22.99;100.00
30967;BME280;17649;51.836;8.330;2023-09-08T08:06:13;101261.69;;;23.12;100.00
30967;BME280;17649;51.836;8.330;2023-09-08T08:09:14;101258.69;;;23.25;100.00
30967;BME280;17649;51.836;8.330;2023-09-08T08:12:14;101266.97;;;23.30;100.00
30967;BME280;17649;51.836;8.330;2023-09-08T08:15:15;101268.56;;;23.23;100.00
30967;BME280;17649;51.836;8.330;2023-09-08T08:18:15;101264.31;;;23.47;100.00
30967;BME280;17649;51.836;8.330;2023-09-08T08:21:16;101270.47;;;23.66;100.00
30967;BME280;17649;51.836;8.330;2023-09-08T08:24:16;101263.25;;;23.76;100.00
30967;BME280;17649;51.836;8.330;2023-09-08T08:27:17;101269.63;;;23.91;100.00
30967;BME280;17649;51.836;8.330;2023-09-08T08:30:17;101263.09;;;24.03;100.00
30967;BME280;17649;51.836;8.330;2023-09-08T08:33:18;101257.75;;;24.21;100.00
30967;BME280;17649;51.836;8.330;2023-09-08T08:36:19;101254.03;;;24.32;100.00
30967;BME280;17649;51.836;8.330;2023-09-08T08:39:20;101253.25;;;24.48;100.00
30967;BME280;17649;51.836;8.330;2023-09-08T08:42:20;101245.72;;;24.61;100.00
30967;BME280;17649;51.836;8.330;2023-09-08T08:45:23;101243.22;;;24.59;100.00
30967;BME280;17649;51.836;8.330;2023-09-08T08:48:25;101245.22;;;24.65;100.00
30967;BME280;17649;51.836;8.330;2023-09-08T08:51:28;101242.44;;;24.75;100.00
30967;BME280;17649;51.836;8.330;2023-09-08T08:54:29;101241.31;;;24.94;100.00
30967;BME280;17649;51.836;8.330;2023-09-08T08:57:30;101238.91;;;25.01;100.00
30967;BME280;17649;51.836;8.330;2023-09-08T09:00:34;101236.09;;;25.02;100.00
30967;BME280;17649;51.836;8.330;2023-09-08T09:03:36;101236.25;;;25.01;100.00
30967;BME280;17649;51.836;8.330;2023-09-08T09:06:38;101236.44;;;25.15;100.00
30967;BME280;17649;51.836;8.330;2023-09-08T09:09:38;101239.56;;;25.35;100.00
30967;BME280;17649;51.836;8.330;2023-09-08T09:12:40;101243.56;;;25.47;100.00
30967;BME280;17649;51.836;8.330;2023-09-08T09:15:40;101235.25;;;25.50;100.00
30967;BME280;17649;51.836;8.330;2023-09-08T09:18:58;101227.28;;;25.67;100.00
30967;BME280;17649;51.836;8.330;2023-09-08T09:21:59;101222.69;;;25.69;100.00
30967;BME280;17649;51.836;8.330;2023-09-08T09:24:59;101222.84;;;25.75;100.00
30967;BME280;17649;51.836;8.330;2023-09-08T09:28:01;101228.78;;;25.85;100.00
30967;BME280;17649;51.836;8.330;2023-09-08T09:31:02;101227.91;;;26.01;100.00
30967;BME280;17649;51.836;8.330;2023-09-08T09:34:04;101216.63;;;26.07;100.00
30967;BME280;17649;51.836;8.330;2023-09-08T09:37:05;101211.78;;;26.19;100.00
30967;BME280;17649;51.836;8.330;2023-09-08T09:40:06;101204.44;;;26.37;100.00
30967;BME280;17649;51.836;8.330;2023-09-08T09:43:08;101212.34;;;26.45;100.00
30967;BME280;17649;51.836;8.330;2023-09-08T09:46:09;101201.63;;;26.62;100.00
30967;BME280;17649;51.836;8.330;2023-09-08T09:49:11;101208.28;;;26.89;100.00
30967;BME280;17649;51.836;8.330;2023-09-08T09:52:15;101195.78;;;26.97;100.00
30967;BME280;17649;51.836;8.330;2023-09-08T09:55:20;101197.44;;;26.98;100.00
30967;BME280;17649;51.836;8.330;2023-09-08T09:58:21;101206.94;;;27.16;100.00
30967;BME280;17649;51.836;8.330;2023-09-08T10:01:24;101200.94;;;27.37;100.00
30967;BME280;17649;51.836;8.330;2023-09-08T10:04:24;101199.97;;;27.52;100.00
30967;BME280;17649;51.836;8.330;2023-09-08T10:07:25;101201.53;;;27.61;100.00
30967;BME280;17649;51.836;8.330;2023-09-08T10:10:27;101199.03;;;27.83;100.00
30967;BME280;17649;51.836;8.330;2023-09-08T10:13:31;101188.94;;;27.78;100.00
30967;BME280;17649;51.836;8.330;2023-09-08T10:16:34;101184.34;;;28.02;100.00
30967;BME280;17649;51.836;8.330;2023-09-08T10:19:35;101187.63;;;28.18;100.00
30967;BME280;17649;51.836;8.330;2023-09-08T10:22:42;101186.00;;;28.32;100.00
30967;BME280;17649;51.836;8.330;2023-09-08T10:25:44;101182.22;;;28.27;100.00
30967;BME280;17649;51.836;8.330;2023-09-08T10:28:49;101173.50;;;28.33;100.00
30967;BME280;17649;51.836;8.330;2023-09-08T10:31:56;101167.84;;;28.57;100.00
30967;BME280;17649;51.836;8.330;2023-09-08T10:34:58;101166.56;;;28.53;100.00
30967;BME280;17649;51.836;8.330;2023-09-08T10:38:22;101164.16;;;28.79;100.00
30967;BME280;17649;51.836;8.330;2023-09-08T10:41:26;101156.84;;;29.03;100.00
30967;BME280;17649;51.836;8.330;2023-09-08T10:44:28;101163.16;;;29.30;100.00
30967;BME280;17649;51.836;8.330;2023-09-08T10:47:55;101160.50;;;29.51;100.00
30967;BME280;17649;51.836;8.330;2023-09-08T10:50:57;101157.72;;;29.66;100.00
30967;BME280;17649;51.836;8.330;2023-09-08T10:53:58;101162.75;;;29.89;100.00
30967;BME280;17649;51.836;8.330;2023-09-08T10:56:58;101161.84;;;30.10;100.00
30967;BME280;17649;51.836;8.330;2023-09-08T11:00:02;101162.44;;;30.05;100.00
30967;BME280;17649;51.836;8.330;2023-09-08T11:03:12;101165.88;;;30.40;100.00
30967;BME280;17649;51.836;8.330;2023-09-08T11:06:16;101152.81;;;30.72;100.00
30967;BME280;17649;51.836;8.330;2023-09-08T11:09:22;101163.50;;;30.98;100.00
30967;BME280;17649;51.836;8.330;2023-09-08T11:12:26;101155.25;;;31.53;100.00
30967;BME280;17649;51.836;8.330;2023-09-08T11:15:27;101150.84;;;32.74;100.00
30967;BME280;17649;51.836;8.330;2023-09-08T11:18:31;101153.59;;;34.46;92.90
30967;BME280;17649;51.836;8.330;2023-09-08T11:21:32;101156.91;;;36.00;67.65
30967;BME280;17649;51.836;8.330;2023-09-08T11:24:35;101145.09;;;37.47;53.75
30967;BME280;17649;51.836;8.330;2023-09-08T11:27:35;101148.91;;;38.70;50.90
30967;BME280;17649;51.836;8.330;2023-09-08T11:30:36;101133.84;;;39.84;48.95
30967;BME280;17649;51.836;8.330;2023-09-08T11:33:36;101139.97;;;40.52;45.88
30967;BME280;17649;51.836;8.330;2023-09-08T11:36:40;101126.94;;;40.60;42.66
30967;BME280;17649;51.836;8.330;2023-09-08T11:39:40;101131.28;;;40.96;41.80
30967;BME280;17649;51.836;8.330;2023-09-08T11:42:42;101130.78;;;40.64;41.71
30967;BME280;17649;51.836;8.330;2023-09-08T11:45:46;101134.22;;;41.05;40.16
30967;BME280;17649;51.836;8.330;2023-09-08T11:48:46;101124.75;;;40.77;40.28
30967;BME280;17649;51.836;8.330;2023-09-08T11:51:47;101119.28;;;41.87;38.10
30967;BME280;17649;51.836;8.330;2023-09-08T11:54:47;101102.63;;;41.99;37.17
30967;BME280;17649;51.836;8.330;2023-09-08T11:57:49;101104.38;;;41.85;36.26
30967;BME280;17649;51.836;8.330;2023-09-08T12:00:50;101104.75;;;42.07;37.74
30967;BME280;17649;51.836;8.330;2023-09-08T12:03:52;101105.16;;;42.93;37.78
30967;BME280;17649;51.836;8.330;2023-09-08T12:06:54;101108.81;;;42.10;36.42
30967;BME280;17649;51.836;8.330;2023-09-08T12:09:55;101104.84;;;42.94;34.14
30967;BME280;17649;51.836;8.330;2023-09-08T12:12:56;101102.25;;;40.81;36.13
30967;BME280;17649;51.836;8.330;2023-09-08T12:16:00;101089.25;;;40.94;37.69
30967;BME280;17649;51.836;8.330;2023-09-08T12:19:00;101090.13;;;41.54;36.29
30967;BME280;17649;51.836;8.330;2023-09-08T12:22:02;101093.31;;;42.49;37.21
30967;BME280;17649;51.836;8.330;2023-09-08T12:25:08;101082.66;;;42.53;34.56
30967;BME280;17649;51.836;8.330;2023-09-08T12:28:08;101095.41;;;42.23;35.07
30967;BME280;17649;51.836;8.330;2023-09-08T12:31:10;101089.00;;;42.72;33.77
30967;BME280;17649;51.836;8.330;2023-09-08T12:34:12;101086.97;;;42.59;32.61
30967;BME280;17649;51.836;8.330;2023-09-08T12:37:13;101077.69;;;43.56;32.06
30967;BME280;17649;51.836;8.330;2023-09-08T12:40:14;101084.56;;;44.10;31.39
30967;BME280;17649;51.836;8.330;2023-09-08T12:43:15;101071.72;;;45.03;33.99
30967;BME280;17649;51.836;8.330;2023-09-08T12:46:17;101085.88;;;44.12;31.99
30967;BME280;17649;51.836;8.330;2023-09-08T12:49:18;101079.59;;;44.44;32.24
30967;BME280;17649;51.836;8.330;2023-09-08T12:52:18;101072.78;;;44.60;30.85
30967;BME280;17649;51.836;8.330;2023-09-08T12:55:19;101072.09;;;44.82;31.18
30967;BME280;17649;51.836;8.330;2023-09-08T12:58:19;101066.41;;;44.79;32.30
30967;BME280;17649;51.836;8.330;2023-09-08T13:01:19;101061.13;;;45.51;29.90
30967;BME280;17649;51.836;8.330;2023-09-08T13:04:20;101056.53;;;45.24;28.73
30967;BME280;17649;51.836;8.330;2023-09-08T13:07:20;101050.72;;;46.43;31.00
30967;BME280;17649;51.836;8.330;2023-09-08T13:10:21;101044.00;;;46.88;30.07
30967;BME280;17649;51.836;8.330;2023-09-08T13:13:21;101045.31;;;47.00;29.03
30967;BME280;17649;51.836;8.330;2023-09-08T13:16:21;101043.44;;;46.07;28.71
30967;BME280;17649;51.836;8.330;2023-09-08T13:19:22;101041.22;;;46.40;28.44
30967;BME280;17649;51.836;8.330;2023-09-08T13:22:22;101043.50;;;46.16;30.20
30967;BME280;17649;51.836;8.330;2023-09-08T13:25:22;101037.34;;;46.41;29.42
30967;BME280;17649;51.836;8.330;2023-09-08T13:28:23;101029.16;;;46.41;28.25
30967;BME280;17649;51.836;8.330;2023-09-08T13:31:23;101036.13;;;46.56;27.62
30967;BME280;17649;51.836;8.330;2023-09-08T13:34:24;101034.34;;;46.51;27.00
30967;BME280;17649;51.836;8.330;2023-09-08T13:37:24;101021.38;;;47.40;28.23
30967;BME280;17649;51.836;8.330;2023-09-08T13:40:25;101030.53;;;48.60;26.91
30967;BME280;17649;51.836;8.330;2023-09-08T13:43:29;101027.97;;;47.99;26.08
30967;BME280;17649;51.836;8.330;2023-09-08T13:46:30;101015.38;;;47.12;27.28
30967;BME280;17649;51.836;8.330;2023-09-08T13:49:31;101022.28;;;46.92;26.44
30967;BME280;17649;51.836;8.330;2023-09-08T13:52:32;101022.31;;;46.61;27.39
30967;BME280;17649;51.836;8.330;2023-09-08T13:55:32;101019.34;;;45.95;27.75
30967;BME280;17649;51.836;8.330;2023-09-08T13:58:32;101010.59;;;47.17;28.45
30967;BME280;17649;51.836;8.330;2023-09-08T14:01:36;101013.00;;;46.62;27.03
30967;BME280;17649;51.836;8.330;2023-09-08T14:04:37;101010.22;;;45.55;30.69
30967;BME280;17649;51.836;8.330;2023-09-08T14:07:40;101012.75;;;46.81;29.65
30967;BME280;17649;51.836;8.330;2023-09-08T14:10:40;101021.63;;;48.16;28.88
30967;BME280;17649;51.836;8.330;2023-09-08T14:13:40;101012.59;;;48.24;28.04
30967;BME280;17649;51.836;8.330;2023-09-08T14:16:41;101020.22;;;47.84;26.19
30967;BME280;17649;51.836;8.330;2023-09-08T14:19:41;101019.44;;;48.77;27.74
30967;BME280;17649;51.836;8.330;2023-09-08T14:22:41;101014.63;;;50.11;26.61
30967;BME280;17649;51.836;8.330;2023-09-08T14:25:42;101016.16;;;51.07;26.45
30967;BME280;17649;51.836;8.330;2023-09-08T14:28:42;101006.03;;;51.95;25.93
30967;BME280;17649;51.836;8.330;2023-09-08T14:31:42;101009.47;;;51.76;25.05
30967;BME280;17649;51.836;8.330;2023-09-08T14:34:43;101002.59;;;51.70;24.80
30967;BME280;17649;51.836;8.330;2023-09-08T14:37:43;100998.94;;;51.66;24.80
30967;BME280;17649;51.836;8.330;2023-09-08T14:41:07;100995.66;;;51.76;24.52
30967;BME280;17649;51.836;8.330;2023-09-08T14:44:07;100998.44;;;51.76;24.12
30967;BME280;17649;51.836;8.330;2023-09-08T14:47:07;100997.34;;;52.08;24.95
30967;BME280;17649;51.836;8.330;2023-09-08T14:50:09;100996.91;;;50.58;23.40
30967;BME280;17649;51.836;8.330;2023-09-08T14:53:09;101000.78;;;50.57;26.12
30967;BME280;17649;51.836;8.330;2023-09-08T14:56:10;100994.81;;;50.91;26.23
30967;BME280;17649;51.836;8.330;2023-09-08T14:59:10;100994.47;;;51.05;24.39
30967;BME280;17649;51.836;8.330;2023-09-08T15:02:10;100994.00;;;51.31;24.77
30967;BME280;17649;51.836;8.330;2023-09-08T15:05:10;100991.56;;;51.70;24.98
30967;BME280;17649;51.836;8.330;2023-09-08T15:08:11;100991.34;;;52.06;25.25
30967;BME280;17649;51.836;8.330;2023-09-08T15:11:12;100983.41;;;52.21;25.09
30967;BME280;17649;51.836;8.330;2023-09-08T15:14:12;100984.13;;;52.17;24.87
30967;BME280;17649;51.836;8.330;2023-09-08T15:17:13;100978.97;;;52.00;25.48
30967;BME280;17649;51.836;8.330;2023-09-08T15:20:13;100979.47;;;51.74;25.05
30967;BME280;17649;51.836;8.330;2023-09-08T15:23:14;100983.03;;;51.47;25.32
30967;BME280;17649;51.836;8.330;2023-09-08T15:26:14;100976.75;;;49.09;26.95
30967;BME280;17649;51.836;8.330;2023-09-08T15:29:15;100976.06;;;45.44;30.63
30967;BME280;17649;51.836;8.330;2023-09-08T15:32:15;100979.28;;;42.29;35.17
30967;BME280;17649;51.836;8.330;2023-09-08T15:35:16;100987.88;;;39.93;41.47
30967;BME280;17649;51.836;8.330;2023-09-08T15:38:17;100985.69;;;38.12;49.55
30967;BME280;17649;51.836;8.330;2023-09-08T15:41:18;100990.56;;;36.74;75.86